sensor_id;sensor_type;location;lat;lon;timestamp;pressure;altitude;pressure_sealevel;temperature;humidity
50933;BME280;36921;49.006;9.292;2023-06-04T00:02:19;98746.03;;;15.22;100.00
50933;BME280;36921;49.006;9.292;2023-06-04T00:04:44;98740.47;;;15.17;100.00
50933;BME280;36921;49.006;9.292;2023-06-04T00:07:09;98733.53;;;15.03;100.00
50933;BME280;36921;49.006;9.292;2023-06-04T00:09:35;98733.53;;;14.91;100.00
50933;BME280;36921;49.006;9.292;2023-06-04T00:12:00;98737.16;;;14.85;100.00
50933;BME280;36921;49.006;9.292;2023-06-04T00:14:26;98737.50;;;14.77;100.00
50933;BME280;36921;49.006;9.292;2023-06-04T00:16:51;98732.75;;;14.72;100.00
50933;BME280;36921;49.006;9.292;2023-06-04T00:19:17;98735.53;;;14.96;100.00
50933;BME280;36921;49.006;9.292;2023-06-04T00:21:42;98733.47;;;14.79;100.00
50933;BME280;36921;49.006;9.292;2023-06-04T00:24:08;98736.91;;;14.75;100.00
50933;BME280;36921;49.006;9.292;2023-06-04T00:26:33;98735.44;;;14.60;100.00
50933;BME280;36921;49.006;9.292;2023-06-04T00:29:00;98745.72;;;14.58;100.00
50933;BME280;36921;49.006;9.292;2023-06-04T00:31:25;98732.72;;;14.60;100.00
50933;BME280;36921;49.006;9.292;2023-06-04T00:33:51;98748.44;;;14.58;100.00
50933;BME280;36921;49.006;9.292;2023-06-04T00:36:17;98737.41;;;14.53;100.00
50933;BME280;36921;49.006;9.292;2023-06-04T00:38:43;98744.69;;;14.41;100.00
50933;BME280;36921;49.006;9.292;2023-06-04T00:41:08;98744.53;;;14.36;100.00
50933;BME280;36921;49.006;9.292;2023-06-04T00:43:33;98753.91;;;14.21;100.00
50933;BME280;36921;49.006;9.292;2023-06-04T00:46:02;98752.34;;;14.14;100.00
50933;BME280;36921;49.006;9.292;2023-06-04T00:48:30;98755.00;;;14.20;100.00
50933;BME280;36921;49.006;9.292;2023-06-04T00:50:56;98755.88;;;14.14;100.00
50933;BME280;36921;49.006;9.292;2023-06-04T00:53:24;98756.81;;;14.08;100.00
50933;BME280;36921;49.006;9.292;2023-06-04T00:55:50;98756.28;;;13.99;100.00
50933;BME280;36921;49.006;9.292;2023-06-04T00:58:16;98763.31;;;13.89;100.00
50933;BME280;36921;49.006;9.292;2023-06-04T01:00:42;98766.75;;;13.77;100.00
50933;BME280;36921;49.006;9.292;2023-06-04T01:03:14;98759.28;;;13.73;100.00
50933;BME280;36921;49.006;9.292;2023-06-04T01:05:40;98770.50;;;13.58;100.00
50933;BME280;36921;49.006;9.292;2023-06-04T01:08:08;98765.19;;;13.45;100.00
50933;BME280;36921;49.006;9.292;2023-06-04T01:10:36;98764.53;;;13.49;100.00
50933;BME280;36921;49.006;9.292;2023-06-04T01:13:01;98765.09;;;13.33;100.00
50933;BME280;36921;49.006;9.292;2023-06-04T01:15:27;98765.78;;;13.28;100.00
50933;BME280;36921;49.006;9.292;2023-06-04T01:17:59;98769.56;;;13.21;100.00
50933;BME280;36921;49.006;9.292;2023-06-04T01:20:36;98776.75;;;13.08;100.00
50933;BME280;36921;49.006;9.292;2023-06-04T01:23:38;98777.84;;;13.01;100.00
50933;BME280;36921;49.006;9.292;2023-06-04T01:26:08;98777.28;;;12.92;100.00
50933;BME280;36921;49.006;9.292;2023-06-04T01:28:36;98771.25;;;12.90;100.00
50933;BME280;36921;49.006;9.292;2023-06-04T01:31:03;98775.84;;;12.89;100.00
50933;BME280;36921;49.006;9.292;2023-06-04T01:33:29;98778.72;;;12.94;100.00
50933;BME280;36921;49.006;9.292;2023-06-04T01:35:55;98785.19;;;12.93;100.00
50933;BME280;36921;49.006;9.292;2023-06-04T01:38:21;98775.59;;;12.91;100.00
50933;BME280;36921;49.006;9.292;2023-06-04T01:40:46;98776.03;;;12.94;100.00
50933;BME280;36921;49.006;9.292;2023-06-04T01:43:12;98740.41;;;12.78;100.00
50933;BME280;36921;49.006;9.292;2023-06-04T01:45:38;98781.44;;;12.94;100.00
50933;BME280;36921;49.006;9.292;2023-06-04T01:48:05;98783.38;;;12.87;100.00
50933;BME280;36921;49.006;9.292;2023-06-04T01:50:33;98775.03;;;12.82;100.00
50933;BME280;36921;49.006;9.292;2023-06-04T01:52:59;98779.41;;;12.83;100.00
50933;BME280;36921;49.006;9.292;2023-06-04T01:55:25;98773.22;;;12.76;100.00
50933;BME280;36921;49.006;9.292;2023-06-04T01:57:51;98781.19;;;12.71;100.00
50933;BME280;36921;49.006;9.292;2023-06-04T02:00:17;98781.63;;;12.61;100.00
50933;BME280;36921;49.006;9.292;2023-06-04T02:02:44;98786.06;;;12.56;100.00
50933;BME280;36921;49.006;9.292;2023-06-04T02:05:11;98780.41;;;12.57;100.00
50933;BME280;36921;49.006;9.292;2023-06-04T02:07:38;98782.94;;;12.52;100.00
50933;BME280;36921;49.006;9.292;2023-06-04T02:10:08;98778.56;;;12.51;100.00
50933;BME280;36921;49.006;9.292;2023-06-04T02:12:36;98781.53;;;12.36;100.00
50933;BME280;36921;49.006;9.292;2023-06-04T02:15:02;98780.56;;;12.24;100.00
50933;BME280;36921;49.006;9.292;2023-06-04T02:17:28;98787.25;;;12.15;100.00
50933;BME280;36921;49.006;9.292;2023-06-04T02:19:57;98773.94;;;12.13;100.00
50933;BME280;36921;49.006;9.292;2023-06-04T02:22:24;98778.53;;;12.06;100.00
50933;BME280;36921;49.006;9.292;2023-06-04T02:24:50;98783.97;;;11.99;100.00
50933;BME280;36921;49.006;9.292;2023-06-04T02:27:15;98778.53;;;11.99;100.00
50933;BME280;36921;49.006;9.292;2023-06-04T02:29:41;98786.91;;;11.98;100.00
50933;BME280;36921;49.006;9.292;2023-06-04T02:32:07;98787.16;;;11.90;100.00
50933;BME280;36921;49.006;9.292;2023-06-04T02:34:33;98776.06;;;11.91;100.00
50933;BME280;36921;49.006;9.292;2023-06-04T02:37:02;98773.75;;;11.81;100.00
50933;BME280;36921;49.006;9.292;2023-06-04T02:39:28;98787.75;;;11.78;100.00
50933;BME280;36921;49.006;9.292;2023-06-04T02:41:53;98782.31;;;11.78;100.00
50933;BME280;36921;49.006;9.292;2023-06-04T02:44:19;98785.03;;;11.78;100.00
50933;BME280;36921;49.006;9.292;2023-06-04T02:46:44;98779.59;;;11.78;100.00
50933;BME280;36921;49.006;9.292;2023-06-04T02:49:11;98784.63;;;11.68;100.00
50933;BME280;36921;49.006;9.292;2023-06-04T02:51:43;98789.63;;;11.58;100.00
50933;BME280;36921;49.006;9.292;2023-06-04T02:54:09;98782.38;;;11.58;100.00
50933;BME280;36921;49.006;9.292;2023-06-04T02:56:36;98786.53;;;11.54;100.00
50933;BME280;36921;49.006;9.292;2023-06-04T02:59:02;98779.47;;;11.53;100.00
50933;BME280;36921;49.006;9.292;2023-06-04T03:01:28;98780.72;;;11.51;100.00
50933;BME280;36921;49.006;9.292;2023-06-04T03:03:54;98786.13;;;11.51;100.00
50933;BME280;36921;49.006;9.292;2023-06-04T03:06:21;98784.44;;;11.56;100.00
50933;BME280;36921;49.006;9.292;2023-06-04T03:08:48;98781.75;;;11.56;100.00
50933;BME280;36921;49.006;9.292;2023-06-04T03:11:14;98790.72;;;11.50;100.00
50933;BME280;36921;49.006;9.292;2023-06-04T03:13:40;98784.47;;;11.43;100.00
50933;BME280;36921;49.006;9.292;2023-06-04T03:16:05;98789.25;;;11.41;100.00
50933;BME280;36921;49.006;9.292;2023-06-04T03:18:41;98798.00;;;11.30;100.00
50933;BME280;36921;49.006;9.292;2023-06-04T03:21:07;98799.69;;;11.24;100.00
50933;BME280;36921;49.006;9.292;2023-06-04T03:23:34;98805.28;;;11.23;100.00
50933;BME280;36921;49.006;9.292;2023-06-04T03:26:04;98806.34;;;11.22;100.00
50933;BME280;36921;49.006;9.292;2023-06-04T03:28:30;98801.94;;;11.21;100.00
50933;BME280;36921;49.006;9.292;2023-06-04T03:30:56;98811.97;;;11.27;100.00
50933;BME280;36921;49.006;9.292;2023-06-04T03:33:22;98809.47;;;11.32;100.00
50933;BME280;36921;49.006;9.292;2023-06-04T03:35:47;98805.69;;;11.39;100.00
50933;BME280;36921;49.006;9.292;2023-06-04T03:38:14;98813.63;;;11.41;100.00
50933;BME280;36921;49.006;9.292;2023-06-04T03:40:39;98813.00;;;11.32;100.00
50933;BME280;36921;49.006;9.292;2023-06-04T03:43:05;98816.53;;;11.26;100.00
50933;BME280;36921;49.006;9.292;2023-06-04T03:45:31;98805.69;;;11.26;100.00
50933;BME280;36921;49.006;9.292;2023-06-04T03:47:56;98810.72;;;11.29;100.00
50933;BME280;36921;49.006;9.292;2023-06-04T03:50:22;98809.47;;;11.38;100.00
50933;BME280;36921;49.006;9.292;2023-06-04T03:52:50;98811.75;;;11.48;100.00
50933;BME280;36921;49.006;9.292;2023-06-04T03:55:15;98823.44;;;11.55;100.00
50933;BME280;36921;49.006;9.292;2023-06-04T03:57:41;98825.06;;;11.63;100.00
50933;BME280;36921;49.006;9.292;2023-06-04T04:00:08;98821.97;;;11.59;100.00
50933;BME280;36921;49.006;9.292;2023-06-04T04:02:37;98823.22;;;11.63;100.00
50933;BME280;36921;49.006;9.292;2023-06-04T04:05:03;98830.72;;;11.61;100.00
50933;BME280;36921;49.006;9.292;2023-06-04T04:07:28;98826.13;;;11.62;100.00
50933;BME280;36921;49.006;9.292;2023-06-04T04:09:54;98824.25;;;11.62;100.00
50933;BME280;36921;49.006;9.292;2023-06-04T04:12:19;98828.63;;;11.77;100.00
50933;BME280;36921;49.006;9.292;2023-06-04T04:14:44;98830.28;;;11.84;100.00
50933;BME280;36921;49.006;9.292;2023-06-04T04:17:11;98819.88;;;11.95;100.00
50933;BME280;36921;49.006;9.292;2023-06-04T04:19:38;98830.28;;;11.98;100.00
50933;BME280;36921;49.006;9.292;2023-06-04T04:22:03;98836.53;;;11.92;100.00
50933;BME280;36921;49.006;9.292;2023-06-04T04:24:29;98831.97;;;11.92;100.00
50933;BME280;36921;49.006;9.292;2023-06-04T04:26:54;98840.50;;;11.96;100.00
50933;BME280;36921;49.006;9.292;2023-06-04T04:29:21;98839.06;;;11.93;100.00
50933;BME280;36921;49.006;9.292;2023-06-04T04:31:50;98847.78;;;12.02;100.00
50933;BME280;36921;49.006;9.292;2023-06-04T04:34:15;98845.66;;;12.17;100.00
50933;BME280;36921;49.006;9.292;2023-06-04T04:36:42;98841.06;;;12.24;100.00
50933;BME280;36921;49.006;9.292;2023-06-04T04:39:09;98844.38;;;12.40;100.00
50933;BME280;36921;49.006;9.292;2023-06-04T04:41:34;98842.63;;;12.52;100.00
50933;BME280;36921;49.006;9.292;2023-06-04T04:44:04;98843.88;;;12.63;100.00
50933;BME280;36921;49.006;9.292;2023-06-04T04:46:30;98849.88;;;12.65;100.00
50933;BME280;36921;49.006;9.292;2023-06-04T04:48:55;98852.34;;;12.73;100.00
50933;BME280;36921;49.006;9.292;2023-06-04T04:51:21;98843.31;;;12.86;100.00
50933;BME280;36921;49.006;9.292;2023-06-04T04:53:47;98849.09;;;12.96;100.00
50933;BME280;36921;49.006;9.292;2023-06-04T04:56:13;98852.41;;;13.05;100.00
50933;BME280;36921;49.006;9.292;2023-06-04T04:58:38;98846.31;;;13.09;100.00
50933;BME280;36921;49.006;9.292;2023-06-04T05:01:04;98848.16;;;13.15;100.00
50933;BME280;36921;49.006;9.292;2023-06-04T05:03:29;98846.66;;;13.26;100.00
50933;BME280;36921;49.006;9.292;2023-06-04T05:05:55;98851.75;;;13.41;100.00
50933;BME280;36921;49.006;9.292;2023-06-04T05:08:20;98864.25;;;13.49;100.00
50933;BME280;36921;49.006;9.292;2023-06-04T05:10:45;98856.59;;;13.64;100.00
50933;BME280;36921;49.006;9.292;2023-06-04T05:13:11;98855.09;;;13.93;100.00
50933;BME280;36921;49.006;9.292;2023-06-04T05:15:36;98853.09;;;14.25;100.00
50933;BME280;36921;49.006;9.292;2023-06-04T05:18:02;98861.97;;;14.58;100.00
50933;BME280;36921;49.006;9.292;2023-06-04T05:20:29;98858.72;;;14.67;100.00
50933;BME280;36921;49.006;9.292;2023-06-04T05:22:55;98862.72;;;14.83;100.00
50933;BME280;36921;49.006;9.292;2023-06-04T05:25:20;98865.34;;;14.90;100.00
50933;BME280;36921;49.006;9.292;2023-06-04T05:27:47;98863.06;;;14.87;100.00
50933;BME280;36921;49.006;9.292;2023-06-04T05:30:14;98863.81;;;14.94;100.00
50933;BME280;36921;49.006;9.292;2023-06-04T05:32:39;98867.13;;;15.15;100.00
50933;BME280;36921;49.006;9.292;2023-06-04T05:35:06;98870.47;;;15.40;100.00
50933;BME280;36921;49.006;9.292;2023-06-04T05:37:33;98872.16;;;15.83;100.00
50933;BME280;36921;49.006;9.292;2023-06-04T05:39:59;98874.06;;;15.94;100.00
50933;BME280;36921;49.006;9.292;2023-06-04T05:42:25;98874.63;;;16.43;100.00
50933;BME280;36921;49.006;9.292;2023-06-04T05:44:52;98870.53;;;16.81;100.00
50933;BME280;36921;49.006;9.292;2023-06-04T05:47:17;98881.38;;;17.05;100.00
50933;BME280;36921;49.006;9.292;2023-06-04T05:49:43;98866.84;;;17.45;100.00
50933;BME280;36921;49.006;9.292;2023-06-04T05:52:09;98869.16;;;17.53;100.00
50933;BME280;36921;49.006;9.292;2023-06-04T05:54:38;98876.34;;;17.42;100.00
50933;BME280;36921;49.006;9.292;2023-06-04T05:57:04;98880.28;;;17.97;100.00
50933;BME280;36921;49.006;9.292;2023-06-04T05:59:30;98882.84;;;18.37;100.00
50933;BME280;36921;49.006;9.292;2023-06-04T06:01:56;98879.94;;;18.88;98.41
50933;BME280;36921;49.006;9.292;2023-06-04T06:04:22;98877.72;;;18.85;90.88
50933;BME280;36921;49.006;9.292;2023-06-04T06:06:47;98885.19;;;18.51;91.23
50933;BME280;36921;49.006;9.292;2023-06-04T06:09:14;98888.94;;;19.05;92.34
50933;BME280;36921;49.006;9.292;2023-06-04T06:11:40;98884.56;;;19.32;88.46
50933;BME280;36921;49.006;9.292;2023-06-04T06:14:06;98882.28;;;19.78;89.21
50933;BME280;36921;49.006;9.292;2023-06-04T06:16:31;98880.13;;;20.22;85.95
50933;BME280;36921;49.006;9.292;2023-06-04T06:18:58;98892.81;;;20.23;83.35
50933;BME280;36921;49.006;9.292;2023-06-04T06:21:23;98885.19;;;19.98;83.08
50933;BME280;36921;49.006;9.292;2023-06-04T06:23:49;98880.59;;;20.09;81.02
50933;BME280;36921;49.006;9.292;2023-06-04T06:26:14;98878.63;;;20.42;79.95
50933;BME280;36921;49.006;9.292;2023-06-04T06:28:41;98890.94;;;20.82;80.28
50933;BME280;36921;49.006;9.292;2023-06-04T06:31:06;98881.97;;;21.01;78.06
50933;BME280;36921;49.006;9.292;2023-06-04T06:33:32;98891.94;;;21.28;77.36
50933;BME280;36921;49.006;9.292;2023-06-04T06:35:57;98893.06;;;21.37;75.01
50933;BME280;36921;49.006;9.292;2023-06-04T06:38:26;98901.41;;;21.68;71.86
50933;BME280;36921;49.006;9.292;2023-06-04T06:40:52;98898.94;;;22.02;69.43
50933;BME280;36921;49.006;9.292;2023-06-04T06:43:17;98897.22;;;22.58;68.07
50933;BME280;36921;49.006;9.292;2023-06-04T06:45:43;98891.81;;;23.57;66.34
50933;BME280;36921;49.006;9.292;2023-06-04T06:48:08;98892.53;;;25.19;59.71
50933;BME280;36921;49.006;9.292;2023-06-04T06:50:34;98898.88;;;27.66;53.45
50933;BME280;36921;49.006;9.292;2023-06-04T06:53:01;98892.09;;;29.19;46.50
50933;BME280;36921;49.006;9.292;2023-06-04T06:55:27;98896.31;;;30.65;43.54
50933;BME280;36921;49.006;9.292;2023-06-04T06:57:52;98896.38;;;32.29;39.50
50933;BME280;36921;49.006;9.292;2023-06-04T07:00:18;98892.50;;;30.69;38.68
50933;BME280;36921;49.006;9.292;2023-06-04T07:02:43;98888.69;;;32.38;38.59
50933;BME280;36921;49.006;9.292;2023-06-04T07:05:09;98893.47;;;34.41;36.71
50933;BME280;36921;49.006;9.292;2023-06-04T07:07:34;98890.00;;;34.04;34.70
50933;BME280;36921;49.006;9.292;2023-06-04T07:10:00;98894.19;;;34.38;34.85
50933;BME280;36921;49.006;9.292;2023-06-04T07:12:26;98889.63;;;34.78;34.30
50933;BME280;36921;49.006;9.292;2023-06-04T07:14:51;98888.31;;;35.74;33.70
50933;BME280;36921;49.006;9.292;2023-06-04T07:17:16;98885.16;;;35.60;32.67
50933;BME280;36921;49.006;9.292;2023-06-04T07:19:42;98887.91;;;34.29;33.34
50933;BME280;36921;49.006;9.292;2023-06-04T07:22:07;98886.22;;;33.44;33.84
50933;BME280;36921;49.006;9.292;2023-06-04T07:24:33;98890.44;;;34.62;33.95
50933;BME280;36921;49.006;9.292;2023-06-04T07:26:58;98884.94;;;35.68;32.78
50933;BME280;36921;49.006;9.292;2023-06-04T07:29:24;98888.84;;;36.18;31.68
50933;BME280;36921;49.006;9.292;2023-06-04T07:31:49;98892.72;;;37.25;30.58
50933;BME280;36921;49.006;9.292;2023-06-04T07:34:15;98890.59;;;35.52;31.63
50933;BME280;36921;49.006;9.292;2023-06-04T07:36:40;98884.00;;;35.80;31.47
50933;BME280;36921;49.006;9.292;2023-06-04T07:39:06;98878.50;;;37.75;30.11
50933;BME280;36921;49.006;9.292;2023-06-04T07:41:32;98875.91;;;37.93;30.94
50933;BME280;36921;49.006;9.292;2023-06-04T07:43:57;98880.44;;;38.35;29.67
50933;BME280;36921;49.006;9.292;2023-06-04T07:46:23;98877.81;;;38.49;29.45
50933;BME280;36921;49.006;9.292;2023-06-04T07:48:48;98876.34;;;37.95;28.50
50933;BME280;36921;49.006;9.292;2023-06-04T07:51:14;98877.19;;;37.12;29.65
50933;BME280;36921;49.006;9.292;2023-06-04T07:53:39;98872.84;;;37.71;29.99
50933;BME280;36921;49.006;9.292;2023-06-04T07:56:05;98873.09;;;37.93;30.14
50933;BME280;36921;49.006;9.292;2023-06-04T07:58:31;98871.03;;;39.06;29.05
50933;BME280;36921;49.006;9.292;2023-06-04T08:00:57;98868.75;;;39.99;28.26
50933;BME280;36921;49.006;9.292;2023-06-04T08:03:22;98869.31;;;41.01;27.94
50933;BME280;36921;49.006;9.292;2023-06-04T08:05:48;98870.22;;;39.09;27.75
50933;BME280;36921;49.006;9.292;2023-06-04T08:08:14;98871.34;;;40.76;27.04
50933;BME280;36921;49.006;9.292;2023-06-04T08:10:40;98861.72;;;39.05;27.45
50933;BME280;36921;49.006;9.292;2023-06-04T08:13:06;98863.81;;;39.15;27.26
50933;BME280;36921;49.006;9.292;2023-06-04T08:15:31;98862.28;;;40.02;26.93
50933;BME280;36921;49.006;9.292;2023-06-04T08:17:56;98858.41;;;39.51;27.32
50933;BME280;36921;49.006;9.292;2023-06-04T08:20:23;98862.69;;;40.04;27.96
50933;BME280;36921;49.006;9.292;2023-06-04T08:22:49;98857.13;;;39.41;27.26
50933;BME280;36921;49.006;9.292;2023-06-04T08:25:14;98868.09;;;40.91;26.43
50933;BME280;36921;49.006;9.292;2023-06-04T08:27:41;98866.13;;;39.58;27.74
50933;BME280;36921;49.006;9.292;2023-06-04T08:30:07;98864.44;;;40.62;27.20
50933;BME280;36921;49.006;9.292;2023-06-04T08:32:33;98870.53;;;40.71;26.05
50933;BME280;36921;49.006;9.292;2023-06-04T08:34:59;98861.19;;;40.46;27.29
50933;BME280;36921;49.006;9.292;2023-06-04T08:37:24;98858.34;;;41.35;26.56
50933;BME280;36921;49.006;9.292;2023-06-04T08:39:50;98858.16;;;41.89;26.22
50933;BME280;36921;49.006;9.292;2023-06-04T08:42:27;98864.41;;;41.34;27.11
50933;BME280;36921;49.006;9.292;2023-06-04T08:44:55;98864.75;;;42.53;26.11
50933;BME280;36921;49.006;9.292;2023-06-04T08:47:24;98867.22;;;42.99;25.18
50933;BME280;36921;49.006;9.292;2023-06-04T08:49:51;98870.34;;;43.12;25.14
50933;BME280;36921;49.006;9.292;2023-06-04T08:52:18;98864.81;;;42.98;25.11
50933;BME280;36921;49.006;9.292;2023-06-04T08:54:48;98865.41;;;42.71;25.32
50933;BME280;36921;49.006;9.292;2023-06-04T08:57:15;98861.97;;;41.50;23.83
50933;BME280;36921;49.006;9.292;2023-06-04T08:59:41;98855.47;;;40.24;23.53
50933;BME280;36921;49.006;9.292;2023-06-04T09:02:07;98860.03;;;40.72;22.16
50933;BME280;36921;49.006;9.292;2023-06-04T09:04:33;98864.53;;;38.20;23.32
50933;BME280;36921;49.006;9.292;2023-06-04T09:07:01;98853.28;;;39.12;22.87
50933;BME280;36921;49.006;9.292;2023-06-04T09:09:27;98854.19;;;37.63;24.04
50933;BME280;36921;49.006;9.292;2023-06-04T09:11:56;98852.13;;;38.72;23.47
50933;BME280;36921;49.006;9.292;2023-06-04T09:14:22;98848.44;;;39.82;22.78
50933;BME280;36921;49.006;9.292;2023-06-04T09:16:52;98844.31;;;39.03;22.67
50933;BME280;36921;49.006;9.292;2023-06-04T09:19:20;98851.19;;;39.64;23.04
50933;BME280;36921;49.006;9.292;2023-06-04T09:21:58;98849.06;;;39.47;23.18
50933;BME280;36921;49.006;9.292;2023-06-04T09:24:26;98857.56;;;40.92;22.74
50933;BME280;36921;49.006;9.292;2023-06-04T09:27:09;98861.53;;;39.35;23.26
50933;BME280;36921;49.006;9.292;2023-06-04T09:29:36;98857.91;;;38.83;23.13
50933;BME280;36921;49.006;9.292;2023-06-04T09:32:01;98850.72;;;39.59;23.12
50933;BME280;36921;49.006;9.292;2023-06-04T09:34:30;98856.63;;;40.16;22.51
50933;BME280;36921;49.006;9.292;2023-06-04T09:36:56;98854.97;;;39.94;23.25
50933;BME280;36921;49.006;9.292;2023-06-04T09:39:22;98853.63;;;39.70;22.59
50933;BME280;36921;49.006;9.292;2023-06-04T09:42:01;98855.31;;;39.78;23.20
50933;BME280;36921;49.006;9.292;2023-06-04T09:44:29;98855.31;;;38.67;23.33
50933;BME280;36921;49.006;9.292;2023-06-04T09:46:58;98853.44;;;37.70;24.55
50933;BME280;36921;49.006;9.292;2023-06-04T09:49:24;98848.28;;;38.09;23.31
50933;BME280;36921;49.006;9.292;2023-06-04T09:51:50;98855.19;;;38.49;23.79
50933;BME280;36921;49.006;9.292;2023-06-04T09:54:15;98851.69;;;39.15;23.93
50933;BME280;36921;49.006;9.292;2023-06-04T09:56:41;98847.41;;;40.34;23.73
50933;BME280;36921;49.006;9.292;2023-06-04T09:59:08;98850.69;;;40.71;22.69
50933;BME280;36921;49.006;9.292;2023-06-04T10:01:39;98853.84;;;40.23;22.85
50933;BME280;36921;49.006;9.292;2023-06-04T10:04:08;98851.09;;;40.81;22.29
50933;BME280;36921;49.006;9.292;2023-06-04T10:06:34;98859.19;;;41.22;22.61
50933;BME280;36921;49.006;9.292;2023-06-04T10:09:05;98859.56;;;40.63;21.82
50933;BME280;36921;49.006;9.292;2023-06-04T10:11:34;98850.91;;;39.95;22.62
50933;BME280;36921;49.006;9.292;2023-06-04T10:14:03;98848.22;;;40.52;22.89
50933;BME280;36921;49.006;9.292;2023-06-04T10:16:32;98845.72;;;41.47;22.21
50933;BME280;36921;49.006;9.292;2023-06-04T10:18:59;98848.59;;;41.29;21.77
50933;BME280;36921;49.006;9.292;2023-06-04T10:21:26;98847.75;;;41.54;21.74
50933;BME280;36921;49.006;9.292;2023-06-04T10:23:51;98852.28;;;40.55;22.11
50933;BME280;36921;49.006;9.292;2023-06-04T10:26:17;98846.63;;;41.01;22.97
50933;BME280;36921;49.006;9.292;2023-06-04T10:28:43;98853.09;;;41.23;22.00
50933;BME280;36921;49.006;9.292;2023-06-04T10:31:10;98842.53;;;41.24;22.11
50933;BME280;36921;49.006;9.292;2023-06-04T10:33:36;98846.22;;;40.70;21.86
50933;BME280;36921;49.006;9.292;2023-06-04T10:36:16;98843.34;;;40.52;22.48
50933;BME280;36921;49.006;9.292;2023-06-04T10:38:53;98838.88;;;41.34;22.35
50933;BME280;36921;49.006;9.292;2023-06-04T10:41:20;98841.56;;;43.03;21.31
50933;BME280;36921;49.006;9.292;2023-06-04T10:43:49;98841.06;;;42.03;21.61
50933;BME280;36921;49.006;9.292;2023-06-04T10:46:17;98827.25;;;42.02;21.03
50933;BME280;36921;49.006;9.292;2023-06-04T10:51:12;98832.41;;;41.15;21.85
50933;BME280;36921;49.006;9.292;2023-06-04T10:53:37;98827.69;;;39.60;22.53
50933;BME280;36921;49.006;9.292;2023-06-04T10:56:03;98833.22;;;40.30;22.81
50933;BME280;36921;49.006;9.292;2023-06-04T10:58:34;98821.88;;;40.37;22.86
50933;BME280;36921;49.006;9.292;2023-06-04T11:01:00;98840.78;;;39.86;22.01
50933;BME280;36921;49.006;9.292;2023-06-04T11:03:35;98825.41;;;39.91;23.33
50933;BME280;36921;49.006;9.292;2023-06-04T11:06:01;98835.31;;;40.80;22.41
50933;BME280;36921;49.006;9.292;2023-06-04T11:08:29;98826.88;;;39.60;22.83
50933;BME280;36921;49.006;9.292;2023-06-04T11:10:55;98826.25;;;40.02;23.48
50933;BME280;36921;49.006;9.292;2023-06-04T11:13:24;98828.78;;;40.90;22.41
50933;BME280;36921;49.006;9.292;2023-06-04T11:15:53;98821.88;;;42.18;21.72
50933;BME280;36921;49.006;9.292;2023-06-04T11:18:20;98820.22;;;41.26;22.39
50933;BME280;36921;49.006;9.292;2023-06-04T11:20:47;98818.75;;;43.06;22.05
50933;BME280;36921;49.006;9.292;2023-06-04T11:23:14;98822.03;;;43.77;21.68
50933;BME280;36921;49.006;9.292;2023-06-04T11:25:39;98812.34;;;43.37;21.52
50933;BME280;36921;49.006;9.292;2023-06-04T11:28:06;98815.69;;;42.31;21.85
50933;BME280;36921;49.006;9.292;2023-06-04T11:30:31;98816.06;;;42.88;21.40
50933;BME280;36921;49.006;9.292;2023-06-04T11:33:04;98815.72;;;41.46;21.95
50933;BME280;36921;49.006;9.292;2023-06-04T11:35:31;98817.44;;;40.58;22.13
50933;BME280;36921;49.006;9.292;2023-06-04T11:38:04;98818.16;;;41.37;22.75
50933;BME280;36921;49.006;9.292;2023-06-04T11:40:30;98813.38;;;40.62;22.07
50933;BME280;36921;49.006;9.292;2023-06-04T11:42:55;98823.09;;;40.47;22.55
50933;BME280;36921;49.006;9.292;2023-06-04T11:45:22;98825.53;;;40.95;22.47
50933;BME280;36921;49.006;9.292;2023-06-04T11:47:55;98823.81;;;41.58;22.14
50933;BME280;36921;49.006;9.292;2023-06-04T11:50:27;98828.59;;;41.79;21.74
50933;BME280;36921;49.006;9.292;2023-06-04T11:52:54;98818.28;;;40.80;22.39
50933;BME280;36921;49.006;9.292;2023-06-04T11:55:20;98814.59;;;40.47;21.99
50933;BME280;36921;49.006;9.292;2023-06-04T11:57:49;98815.72;;;41.53;22.49
50933;BME280;36921;49.006;9.292;2023-06-04T12:00:16;98803.47;;;39.70;22.76
50933;BME280;36921;49.006;9.292;2023-06-04T12:02:53;98801.91;;;41.59;21.96
50933;BME280;36921;49.006;9.292;2023-06-04T12:05:20;98808.78;;;41.62;22.13
50933;BME280;36921;49.006;9.292;2023-06-04T12:07:48;98808.13;;;40.93;21.78
50933;BME280;36921;49.006;9.292;2023-06-04T12:10:19;98797.97;;;41.10;22.88
50933;BME280;36921;49.006;9.292;2023-06-04T12:12:45;98801.06;;;41.62;22.04
50933;BME280;36921;49.006;9.292;2023-06-04T12:15:12;98796.47;;;41.93;20.82
50933;BME280;36921;49.006;9.292;2023-06-04T12:17:53;98786.81;;;42.88;20.90
50933;BME280;36921;49.006;9.292;2023-06-04T12:20:32;98792.69;;;43.80;20.55
50933;BME280;36921;49.006;9.292;2023-06-04T12:22:57;98778.28;;;43.91;20.51
50933;BME280;36921;49.006;9.292;2023-06-04T12:25:24;98782.34;;;43.63;20.55
50933;BME280;36921;49.006;9.292;2023-06-04T12:27:52;98780.31;;;43.25;20.79
50933;BME280;36921;49.006;9.292;2023-06-04T12:30:18;98781.22;;;42.77;20.98
50933;BME280;36921;49.006;9.292;2023-06-04T12:32:43;98779.91;;;42.40;21.14
50933;BME280;36921;49.006;9.292;2023-06-04T12:35:10;98783.34;;;42.66;21.25
50933;BME280;36921;49.006;9.292;2023-06-04T12:37:36;98783.84;;;42.99;20.35
50933;BME280;36921;49.006;9.292;2023-06-04T12:40:01;98777.03;;;42.47;20.59
50933;BME280;36921;49.006;9.292;2023-06-04T12:42:27;98779.16;;;42.29;20.63
50933;BME280;36921;49.006;9.292;2023-06-04T12:44:53;98782.50;;;41.32;21.47
50933;BME280;36921;49.006;9.292;2023-06-04T12:47:18;98785.56;;;42.47;21.00
50933;BME280;36921;49.006;9.292;2023-06-04T12:49:44;98783.78;;;43.06;20.75
50933;BME280;36921;49.006;9.292;2023-06-04T12:52:10;98786.72;;;42.54;21.06
50933;BME280;36921;49.006;9.292;2023-06-04T12:54:35;98786.38;;;42.44;20.97
50933;BME280;36921;49.006;9.292;2023-06-04T12:57:00;98788.91;;;42.32;21.16